M I D A S
Marine Information and Data Acquisition System
Tripno 741 of the Zeeleeuw from 2004-06-29 06:20:40 to 2004-06-29 11:54:46
Back to CruiseResearch ActivitiesStationsMapUnderway DataData graphs

EquipmentUnitsComments
TimeDGPSUTC
LatitudeDGPSDM.mWGS84
LongitudeDGPSDM.mWGS84
SpeedMeteo Stationm/sRelative wind speed
DirectionMeteo StationdegRelative wind direction
TemperatureMeteo Stationdeg CelciusAir temperature
PressureMeteo StationPaAtmospheric pressure
HumidityMeteo Station%Relative humidity
Missing or incorrect values are displayed as -999
Metereological data collected by the RV Zeeleeuw from 2004-06-29 06:20:40 to 2004-06-29 11:54:46
Time Latitude Longitude Speed Direction Temperature Pressure Humidity
2004-06-29 06:21 51°13.599 2°56.079 2.9 172 16 102510 67
2004-06-29 06:22 51°13.629 2°55.999 6.6 165 16.1 102510 67
2004-06-29 06:23 51°13.674 2°55.897 4.6 174 16 102510 68
2004-06-29 06:24 51°13.728 2°55.792 5.9 160 16.1 102510 68
2004-06-29 06:25 51°13.789 2°55.689 3.5 208 16.1 102520 68
2004-06-29 06:26 51°13.867 2°55.622 6 115 16.2 102520 67
2004-06-29 06:27 51°13.952 2°55.627 5.3 125 16.2 102510 68
2004-06-29 06:28 51°13.963 2°55.586 4.9 353 16.2 102510 68
2004-06-29 06:29 51°14.047 2°55.471 6.8 338 16.2 102500 68
2004-06-29 06:30 51°14.181 2°55.367 8.5 331 16.2 102510 68
2004-06-29 06:31 51°14.31 2°55.168 13.1 340 16.2 102490 69
2004-06-29 06:32 51°14.465 2°54.949 13.4 336 16.1 102480 69
2004-06-29 06:33 51°14.657 2°54.776 12.5 329 16 102470 69
2004-06-29 06:34 51°14.871 2°54.601 14.4 333 16 102470 69
2004-06-29 06:35 51°15.067 2°54.437 13.8 327 15.9 102470 69
2004-06-29 06:36 51°15.263 2°54.274 15.1 330 15.9 102460 69
2004-06-29 06:37 51°15.459 2°54.103 13.4 326 15.9 102470 69
2004-06-29 06:38 51°15.652 2°53.927 14.1 323 15.9 102470 69
2004-06-29 06:39 51°15.85 2°53.77 14.4 325 15.9 102460 69
2004-06-29 06:40 51°16.048 2°53.618 14 323 15.9 102460 69
2004-06-29 06:41 51°16.248 2°53.466 14.6 328 15.8 102470 68
2004-06-29 06:42 51°16.45 2°53.312 13.5 325 15.8 102470 68
2004-06-29 06:43 51°16.644 2°53.163 14.6 328 15.9 102470 70
2004-06-29 06:44 51°16.841 2°53.012 14.5 325 15.8 102470 69
2004-06-29 06:45 51°17.035 2°52.851 13.4 329 15.8 102470 70
2004-06-29 06:46 51°17.223 2°52.685 12.7 331 15.8 102470 70
2004-06-29 06:47 51°17.414 2°52.515 13.9 323 15.8 102470 70
2004-06-29 06:48 51°17.604 2°52.345 12.3 321 15.8 102470 71
2004-06-29 06:49 51°17.798 2°52.173 13.3 325 15.8 102450 70
2004-06-29 06:50 51°17.986 2°52.007 13.4 323 15.7 102460 70
2004-06-29 06:51 51°18.179 2°51.835 13 323 15.7 102460 71
2004-06-29 06:52 51°18.339 2°51.614 14.1 334 15.7 102460 71
2004-06-29 06:53 51°18.496 2°51.367 14.8 338 15.8 102460 72
2004-06-29 06:54 51°18.646 2°51.132 14.2 333 15.7 102450 72
2004-06-29 06:55 51°18.805 2°50.886 14.3 332 15.7 102450 72
2004-06-29 06:56 51°18.963 2°50.647 14.6 336 15.8 102450 73
2004-06-29 06:57 51°19.123 2°50.411 15.4 331 15.7 102440 73
2004-06-29 06:58 51°19.282 2°50.177 13.7 329 15.6 102440 72
2004-06-29 06:59 51°19.439 2°49.934 14.3 336 15.6 102440 72
2004-06-29 07:00 51°19.579 2°49.671 15 336 15.7 102450 73
2004-06-29 07:01 51°19.697 2°49.387 13.9 347 15.6 102440 73
2004-06-29 07:02 51°19.757 2°49.054 15.9 350 15.7 102450 74
2004-06-29 07:03 51°19.79 2°48.708 14.1 351 15.6 102460 74
2004-06-29 07:04 51°19.834 2°48.317 16.7 350 15.6 102460 75
2004-06-29 07:05 51°19.873 2°47.978 16 351 15.6 102460 75
2004-06-29 07:06 51°19.916 2°47.636 14.9 352 15.6 102450 75
2004-06-29 07:07 51°19.96 2°47.296 15.1 356 15.6 102450 75
2004-06-29 07:08 51°20.005 2°46.952 14.5 355 15.5 102450 74
2004-06-29 07:09 51°20.049 2°46.617 15.5 352 15.6 102460 74
2004-06-29 07:10 51°20.089 2°46.293 14.7 357 15.5 102450 74
2004-06-29 07:11 51°20.106 2°45.948 14.9 357 15.6 102460 75
2004-06-29 07:12 51°20.124 2°45.601 14.8 355 15.6 102460 75
2004-06-29 07:13 51°20.142 2°45.269 15.5   15.5 102460 75
2004-06-29 07:14 51°20.161 2°44.92 16.2 351 15.5 102460 75
2004-06-29 07:15 51°20.18 2°44.575 15.7 355 15.4 102460 75
2004-06-29 07:16 51°20.2 2°44.226 15.2 358 15.4 102450 75
2004-06-29 07:17 51°20.23 2°43.887 15.7 354 15.4 102450 75
2004-06-29 07:18 51°20.28 2°43.555 14.4 345 15.4 102440 75
2004-06-29 07:19 51°20.342 2°43.239 15.8 348 15.5 102440 76
2004-06-29 07:20 51°20.404 2°42.913 14.3 350 15.4 102440 75
2004-06-29 07:21 51°20.469 2°42.576 14.9 348 15.5 102440 76
2004-06-29 07:22 51°20.531 2°42.251 13.9 350 15.5 102450 75
2004-06-29 07:23 51°20.594 2°41.928 14.2 348 15.5 102440 76
2004-06-29 07:24 51°20.668 2°41.613 14.3 338 15.4 102440 75
2004-06-29 07:25 51°20.842 2°41.422 11.4 322 15.4 102440 75
2004-06-29 07:26 51°21.062 2°41.355 11 227 15.4 102450 75
2004-06-29 07:27 51°21.279 2°41.347 10.5 312 15.4 102460 75
2004-06-29 07:28 51°21.515 2°41.344 9.4 230 15.4 102460 76
2004-06-29 07:29 51°21.738 2°41.343 9.9 313 15.4 102450 75
2004-06-29 07:30 51°21.964 2°41.346 9.3 307 15.4 102450 76
2004-06-29 07:31 51°22.191 2°41.35 10 306 15.3 102450 75
2004-06-29 07:32 51°22.422 2°41.352 10.4 313 15.4 102450 76
2004-06-29 07:33 51°22.643 2°41.355 9.6 312 15.4 102450 76
2004-06-29 07:34 51°22.875 2°41.357 10.5 311 15.4 102450 76
2004-06-29 07:35 51°23.108 2°41.361 11.1 314 15.5 102440 76
2004-06-29 07:37 51°23.359 2°41.365 10.6 309 15.4 102440 76
2004-06-29 07:38 51°23.578 2°41.357 11.7 311 15.4 102450 76
2004-06-29 07:39 51°23.797 2°41.28 13 313 15.4 102440 76
2004-06-29 07:40 51°24.054 2°41.193 11.1 317 15.4 102430 76
2004-06-29 07:41 51°24.274 2°41.123 10.6 227 15.4 102440 76
2004-06-29 07:42 51°24.494 2°41.048 12.5 316 15.4 102440 76
2004-06-29 07:43 51°24.711 2°40.979 11.1 317 15.3 102430 76
2004-06-29 07:44 51°24.932 2°40.906 11.2 317 15.3 102430 76
2004-06-29 07:45 51°25.155 2°40.869 9.8 306 15.3 102440 75
2004-06-29 07:46 51°25.366 2°41.023 6.2 301 15.3 102460 75
2004-06-29 07:47 51°25.556 2°41.247 5.4 294 15.4 102460 76
2004-06-29 07:48 51°25.733 2°41.482 4.7 288 15.4 102470 75
2004-06-29 07:49 51°25.902 2°41.762 5.4 304 15.5 102460 75
2004-06-29 07:50 51°26.066 2°42.038 3.4 289 15.6 102470 75
2004-06-29 07:51 51°26.192 2°42.362 1.6 262 15.6 102470 74
2004-06-29 07:52 51°26.321 2°42.681 1.9 263 15.6 102470 73
2004-06-29 07:53 51°26.451 2°43.002 1.9 256 15.6 102460 73
2004-06-29 07:54 51°26.579 2°43.325 1.5 247 15.5 102470 73
2004-06-29 07:55 51°26.721 2°43.678 2.5 287 15.6 102460 74
2004-06-29 07:56 51°26.852 2°44.001 1.6 275 15.6 102470 74
2004-06-29 07:57 51°26.883 2°44.372 3.4 99 15.7 102460 74
2004-06-29 07:58 51°26.781 2°44.718 6.8 72 15.7 102460 74
2004-06-29 07:59 51°26.629 2°45.001 9.2 66 15.5 102450 74
2004-06-29 08:00 51°26.454 2°45.236 8.1 68 15.3 102450 75
2004-06-29 08:01 51°26.281 2°45.471 8.5 61 15.3 102450 76
2004-06-29 08:02 51°26.103 2°45.708 8.5 79 15.2 102450 77
2004-06-29 08:03 51°25.929 2°45.956 8.3 72 15.1 102440 76
2004-06-29 08:04 51°25.761 2°46.21 6.5 79 15.1 102450 77
2004-06-29 08:05 51°25.652 2°46.548 5.6 78 15 102450 77
2004-06-29 08:06 51°25.624 2°46.913 0.8 289 15.1 102460 76
2004-06-29 08:07 51°25.733 2°47.247 1.1 278 15.2 102470 77
2004-06-29 08:08 51°25.858 2°47.588 1.4 285 15.3 102460 77
2004-06-29 08:09 51°25.978 2°47.918 2 307 15.4 102460 76
2004-06-29 08:10 51°26.141 2°48.211 2.7 304 15.5 102460 76
2004-06-29 08:11 51°26.308 2°48.504 3 276 15.6 102450 75
2004-06-29 08:12 51°26.473 2°48.793 4.2 289 15.7 102460 75
2004-06-29 08:13 51°26.628 2°49.083 1.9 275 15.8 102460 75
2004-06-29 08:14 51°26.786 2°49.384 2.1 300 15.8 102460 74
2004-06-29 08:15 51°26.978 2°49.547 10.8 314 15.9 102450 74
2004-06-29 08:16 51°27.186 2°49.415 11.4 322 15.8 102440 73
2004-06-29 08:17 51°27.393 2°49.27 12.1 320 15.8 102440 74
2004-06-29 08:18 51°27.6 2°49.129 11.5 319 15.7 102430 74
2004-06-29 08:19 51°27.809 2°48.991 11.5 320 15.6 102440 74
2004-06-29 08:20 51°28.019 2°48.862 11.5 43 15.6 102430 75
2004-06-29 08:21 51°28.237 2°48.957 5 280 15.5 102460 75
2004-06-29 08:22 51°28.408 2°49.24 2 258 15.5 102460 75
2004-06-29 08:23 51°28.535 2°49.579 0.7 167 15.4 102460 75
2004-06-29 08:24 51°28.614 2°49.947 1.6 108 15.5 102460 75
2004-06-29 08:25 51°28.698 2°50.326 1 116 15.6 102460 75
2004-06-29 08:26 51°28.795 2°50.696 0.4 106 15.8 102460 75
2004-06-29 08:27 51°28.899 2°51.064 0.3 150 15.9 102450 74
2004-06-29 08:28 51°29.001 2°51.431 1 302 16.1 102460 74
2004-06-29 08:29 51°29.106 2°51.795 2.2 278 16.2 102460 74
2004-06-29 08:30 51°29.17 2°52.177 4.2 93 16.4 102460 73
2004-06-29 08:31 51°29.073 2°52.518 7.3 73 16.3 102440 72
2004-06-29 08:32 51°28.918 2°52.799 7 69 15.9 102440 73
2004-06-29 08:33 51°28.743 2°53.112 8 78 15.6 102440 74
2004-06-29 08:34 51°28.581 2°53.38 10.5 59 15.4 102430 76
2004-06-29 08:35 51°28.403 2°53.607 9.9 64 15.3 102430 77
2004-06-29 08:36 51°28.223 2°53.835 9.4 69 15.2 102430 76
2004-06-29 08:37 51°28.026 2°54.078 8.6 70 15.2 102430 77
2004-06-29 08:38 51°27.849 2°54.315 8.9 70 15.2 102440 77
2004-06-29 08:39 51°27.671 2°54.547 9 70 15.2 102430 77
2004-06-29 08:40 51°27.495 2°54.78 8.7 61 15.2 102440 78
2004-06-29 08:41 51°27.315 2°55.02 10.2 66 15.2 102440 78
2004-06-29 08:42 51°27.137 2°55.261 8.8 65 15.1 102430 78
2004-06-29 08:43 51°26.964 2°55.492 8.7 61 15.1 102450 78
2004-06-29 08:44 51°26.769 2°55.745 8.4 59 15.2 102450 78
2004-06-29 08:45 51°26.592 2°55.976 9 62 15.2 102450 78
2004-06-29 08:46 51°26.412 2°56.211 7.8 71 15.2 102440 78
2004-06-29 08:47 51°26.237 2°56.445 8.7 70 15.2 102430 78
2004-06-29 08:48 51°26.132 2°56.772 5.1 89 15.2 102450 79
2004-06-29 08:49 51°26.065 2°57.157 3.9 72 15.2 102450 79
2004-06-29 08:50 51°26.008 2°57.528 3.8 80 15.3 102450 79
2004-06-29 08:51 51°25.947 2°57.911 5 77 15.3 102450 79
2004-06-29 08:52 51°25.878 2°58.283 4.8 66 15.3 102450 78
2004-06-29 08:53 51°25.81 2°58.658 6 82 15.3 102450 78
2004-06-29 08:54 51°25.74 2°59.044 4.7 86 15.3 102460 77
2004-06-29 08:55 51°25.682 2°59.422 3.1 80 15.3 102460 77
2004-06-29 08:56 51°25.625 2°59.804 6 88 15.4 102460 78
2004-06-29 08:57 51°25.572 3°0.182 4.6 91 15.4 102460 77
2004-06-29 08:58 51°25.511 3°0.612 4.3 92 15.4 102460 77
2004-06-29 08:59 51°25.448 3°1.036 4.9 86 15.4 102460 77
2004-06-29 09:00 51°25.391 3°1.438 3.7 92 15.4 102460 77
2004-06-29 09:01 51°25.364 3°1.829 4 96 15.5 102470 78
2004-06-29 09:02 51°25.334 3°2.225 4.4 81 15.5 102470 78
2004-06-29 09:03 51°25.298 3°2.616 3.6 74 15.5 102470 77
2004-06-29 09:04 51°25.263 3°3.005 5.7 90 15.5 102470 77
2004-06-29 09:05 51°25.22 3°3.397 4.9 86 15.5 102460 77
2004-06-29 09:06 51°25.18 3°3.799 3.2 75 15.5 102470 77
2004-06-29 09:07 51°25.143 3°4.201 4.3 94 15.6 102470 78
2004-06-29 09:08 51°25.101 3°4.588 3.3 98 15.5 102470 77
2004-06-29 09:09 51°25.074 3°4.975 4.8 89 15.6 102470 77
2004-06-29 09:10 51°25.034 3°5.371 3.9 77 15.5 102470 76
2004-06-29 09:11 51°24.993 3°5.758 4.6 93 15.5 102470 76
2004-06-29 09:12 51°24.949 3°6.163 4.9 80 15.6 102470 76
2004-06-29 09:13 51°24.911 3°6.585 5.3 97 15.6 102470 77
2004-06-29 09:14 51°24.874 3°6.968 3.6 112 15.6 102470 76
2004-06-29 09:15 51°24.845 3°7.361 3.8 112 15.7 102470 77
2004-06-29 09:16 51°24.82 3°7.755 3.3 94 15.7 102470 76
2004-06-29 09:17 51°24.797 3°8.165 2.8 103 15.7 102460 75
2004-06-29 09:18 51°24.78 3°8.548 3.3 124 15.8 102470 76
2004-06-29 09:19 51°24.791 3°8.984 2.2 132 15.8 102470 76
2004-06-29 09:20 51°24.828 3°9.364 2.5 146 15.9 102470 76
2004-06-29 09:21 51°24.881 3°9.753 1.5 148 16 102470 75
2004-06-29 09:22 51°24.945 3°10.131 1.2 158 16 102480 75
2004-06-29 09:23 51°25.025 3°10.497 1.5 255 16 102480 74
2004-06-29 09:24 51°25.128 3°10.824 1.3 248 16 102480 74
2004-06-29 09:25 51°25.314 3°11.067 8.4 295 16 102470 74
2004-06-29 09:27 51°25.575 3°11.056 12 313 16.2 102470 75
2004-06-29 09:28 51°25.786 3°10.966 12.1 313 16.2 102440 75
2004-06-29 09:29 51°25.995 3°10.843 12.2 318 16.1 102430 74
2004-06-29 09:30 51°26.202 3°10.705 12.2 39 16.1 102440 75
2004-06-29 09:31 51°26.414 3°10.567 12.5 317 16.1 102430 75
2004-06-29 09:32 51°26.619 3°10.417 12.3 325 16 102430 75
2004-06-29 09:33 51°26.82 3°10.251 11.8 325 15.9 102430 75
2004-06-29 09:34 51°27.019 3°10.066 12.4 329 15.9 102430 75
2004-06-29 09:35 51°27.215 3°9.835 12.9 331 15.9 102430 76
2004-06-29 09:36 51°27.397 3°9.629 13.3 322 15.9 102420 76
2004-06-29 09:37 51°27.608 3°9.501 10.1 40 15.8 102420 76
2004-06-29 09:38 51°27.842 3°9.517 10.2 300 15.8 102450 76
2004-06-29 09:39 51°28.08 3°9.673 5.6 283 15.8 102450 76
2004-06-29 09:40 51°28.271 3°9.93 3.5 286 15.8 102460 77
2004-06-29 09:41 51°28.405 3°10.253 1.3 287 15.9 102460 77
2004-06-29 09:42 51°28.521 3°10.595 1.3 237 15.9 102470 77
2004-06-29 09:43 51°28.634 3°10.942 0.9 184 16 102460 77
2004-06-29 09:44 51°28.693 3°11.332 2.8 105 16.1 102470 76
2004-06-29 09:45 51°28.699 3°11.708 4 107 16.1 102460 76
2004-06-29 09:46 51°28.631 3°12.081 7.6 83 16 102460 76
2004-06-29 09:47 51°28.492 3°12.367 9 67 15.9 102460 76
2004-06-29 09:48 51°28.268 3°12.603 11.2 66 15.7 102430 77
2004-06-29 09:49 51°28.03 3°12.889 10.7 62 15.6 102440 78
2004-06-29 09:50 51°27.858 3°13.11 9.9 73 15.5 102440 78
2004-06-29 09:51 51°27.675 3°13.332 9 69 15.5 102440 78
2004-06-29 09:52 51°27.493 3°13.544 10.6 62 15.5 102440 78
2004-06-29 09:53 51°27.311 3°13.758 8.9 76 15.5 102430 79
2004-06-29 09:54 51°27.139 3°13.968 9.8 62 15.5 102440 79
2004-06-29 09:55 51°26.944 3°14.172 9.3 73 15.5 102440 79
2004-06-29 09:56 51°26.758 3°14.36 9.5 69 15.5 102440 79
2004-06-29 09:57 51°26.567 3°14.562 9.4 69 15.6 102440 79
2004-06-29 09:58 51°26.383 3°14.756 9.4 65 15.5 102440 78
2004-06-29 09:59 51°26.199 3°14.949 9.6 73 15.6 102440 79
2004-06-29 10:00 51°25.998 3°15.146 10.3 61 15.6 102450 79
2004-06-29 10:01 51°25.815 3°15.355 7.6 78 15.6 102440 79
2004-06-29 10:02 51°25.664 3°15.623 7.9 78 15.6 102440 79
2004-06-29 10:03 51°25.51 3°15.887 8.7 82 15.6 102440 78
2004-06-29 10:04 51°25.356 3°16.167 6.8 82 15.6 102450 78
2004-06-29 10:05 51°25.241 3°16.502 8.4 91 15.7 102460 79
2004-06-29 10:06 51°25.136 3°16.838 6.6 78 15.7 102460 78
2004-06-29 10:07 51°25.01 3°17.173 8.2 81 15.7 102460 77
2004-06-29 10:08 51°24.847 3°17.446 9.4 64 15.6 102450 78
2004-06-29 10:09 51°24.635 3°17.553 12.5 50 15.6 102440 77
2004-06-29 10:10 51°24.423 3°17.563 13.5 49 15.6 102440 78
2004-06-29 10:11 51°24.203 3°17.539 14.5 43 15.7 102430 78
2004-06-29 10:12 51°23.996 3°17.46 12.9 37 15.7 102430 78
2004-06-29 10:13 51°23.798 3°17.357 14.6 31 15.7 102440 77
2004-06-29 10:14 51°23.623 3°17.19 14.2 23 15.8 102430 77
2004-06-29 10:15 51°23.481 3°16.957 14.9 20 15.9 102430 77
2004-06-29 10:16 51°23.384 3°16.687 15 12 16 102450 77
2004-06-29 10:17 51°23.29 3°16.415 15.1 10 16 102440 77
2004-06-29 10:18 51°23.219 3°16.123 14.8 10 16 102450 76
2004-06-29 10:19 51°23.157 3°15.812 14.8 7 16 102440 76
2004-06-29 10:20 51°23.097 3°15.512 15.8 4 16 102430 76
2004-06-29 10:21 51°23.036 3°15.208 16 6 16 102430 76
2004-06-29 10:22 51°22.976 3°14.904 14.6 4 15.9 102440 76
2004-06-29 10:23 51°22.922 3°14.6 15.8 8 16 102440 76
2004-06-29 10:24 51°22.865 3°14.287 15.9 5 16 102440 76
2004-06-29 10:25 51°22.818 3°13.988 15.3 2 15.9 102430 75
2004-06-29 10:26 51°22.769 3°13.668 15.4 1 16 102440 76
2004-06-29 10:27 51°22.725 3°13.358 15.2 5 16 102450 76
2004-06-29 10:28 51°22.679 3°13.046 14.2 7 16 102440 77
2004-06-29 10:29 51°22.634 3°12.732 16.3 2 16 102440 76
2004-06-29 10:30 51°22.588 3°12.415 13.8 3 16 102440 76
2004-06-29 10:32 51°22.539 3°12.066 15.8 4 16 102440 76
2004-06-29 10:33 51°22.495 3°11.752 14.1 4 16 102450 76
2004-06-29 10:34 51°22.449 3°11.426 14.7 4 16.1 102450 77
2004-06-29 10:35 51°22.404 3°11.102 14.9 9 16.1 102440 76
2004-06-29 10:36 51°22.362 3°10.776 16 3 16.1 102440 77
2004-06-29 10:37 51°22.317 3°10.45 12.9 5 16 102440 76
2004-06-29 10:38 51°22.275 3°10.125 14.8 8 16.1 102450 77
2004-06-29 10:39 51°22.234 3°9.801 15.1 8 16 102440 75
2004-06-29 10:40 51°22.193 3°9.481 14.3 7 16.1 102450 76
2004-06-29 10:41 51°22.153 3°9.15 15.4 5 16.1 102460 76
2004-06-29 10:42 51°22.113 3°8.826 15.3 2 16.1 102460 75
2004-06-29 10:43 51°22.072 3°8.503 14.9 2 16.1 102450 76
2004-06-29 10:44 51°22.032 3°8.181 15.6 8 16.1 102450 77
2004-06-29 10:45 51°21.992 3°7.856 14.3 4 16.1 102450 76
2004-06-29 10:46 51°21.952 3°7.532 14.8 2 16.1 102460 77
2004-06-29 10:47 51°21.912 3°7.201 14.7 2 16.1 102440 77
2004-06-29 10:48 51°21.85 3°6.882 15.7 7 16.1 102460 78
2004-06-29 10:49 51°21.77 3°6.579 15.7 13 16 102440 77
2004-06-29 10:50 51°21.694 3°6.274 14.8 10 16 102460 77
2004-06-29 10:51 51°21.62 3°5.972 15.5 11 16.1 102460 77
2004-06-29 10:52 51°21.545 3°5.664 15.1 9 16.1 102460 76
2004-06-29 10:53 51°21.469 3°5.35 15.4 9 16.1 102460 76
2004-06-29 10:54 51°21.397 3°5.036 14.9 8 16.1 102440 76
2004-06-29 10:55 51°21.324 3°4.722 14.7 10 16.1 102440 76
2004-06-29 10:56 51°21.249 3°4.408 13.7 11 16.1 102450 77
2004-06-29 10:57 51°21.169 3°4.098 14.3 17 16.2 102460 77
2004-06-29 10:58 51°21.093 3°3.786 15.8 13 16.1 102450 76
2004-06-29 10:59 51°21.016 3°3.473 15.6 10 16.2 102460 76
2004-06-29 11:00 51°20.942 3°3.164 16.3 7 16.2 102450 77
2004-06-29 11:01 51°20.863 3°2.852 15.7 9 16.2 102450 77
2004-06-29 11:02 51°20.782 3°2.527 15.7 8 16.2 102470 78
2004-06-29 11:03 51°20.705 3°2.218 15.2 16 16.2 102460 78
2004-06-29 11:04 51°20.625 3°1.914 14.1 9 16.2 102460 78
2004-06-29 11:05 51°20.542 3°1.6 15.5 9 16.2 102460 78
2004-06-29 11:06 51°20.461 3°1.293 15.9 12 16.2 102460 78
2004-06-29 11:07 51°20.38 3°0.987 14.2 11 16.2 102450 77
2004-06-29 11:08 51°20.299 3°0.68 15.7 10 16.2 102460 77
2004-06-29 11:09 51°20.219 3°0.37 14.9 14 16.1 102460 77
2004-06-29 11:10 51°20.14 3°0.057 15.9 10 16.1 102450 76
2004-06-29 11:11 51°20.061 2°59.741 14.4 15 16.1 102460 77
2004-06-29 11:12 51°19.982 2°59.425 14.1 13 16.1 102460 77
2004-06-29 11:13 51°19.903 2°59.105 14.4 12 16.2 102460 78
2004-06-29 11:14 51°19.825 2°58.795 13.9 11 16.2 102460 78
2004-06-29 11:15 51°19.746 2°58.48 14.4 10 16.2 102470 78
2004-06-29 11:16 51°19.667 2°58.166 15 12 16.2 102480 78
2004-06-29 11:17 51°19.589 2°57.852 14.7 11 16.2 102470 78
2004-06-29 11:18 51°19.511 2°57.537 14.6 12 16.2 102470 78
2004-06-29 11:19 51°19.432 2°57.222 15.2 14 16.2 102470 78
2004-06-29 11:20 51°19.352 2°56.909 15 16 16.2 102470 78
2004-06-29 11:21 51°19.273 2°56.596 14.4 15 16.2 102470 78
2004-06-29 11:22 51°19.193 2°56.281 15.1 11 16.2 102460 78
2004-06-29 11:23 51°19.114 2°55.967 14.1 11 16.2 102460 78
2004-06-29 11:24 51°19.035 2°55.652 14.8 12 16.2 102450 78
2004-06-29 11:25 51°18.955 2°55.338 14.6 10 16.2 102460 79
2004-06-29 11:26 51°18.875 2°55.023 14.6 14 16.2 102460 79
2004-06-29 11:27 51°18.795 2°54.71 15.7 12 16.2 102450 79
2004-06-29 11:28 51°18.714 2°54.396 15.3 11 16.2 102460 79
2004-06-29 11:29 51°18.633 2°54.082 14.9 14 16.2 102450 80
2004-06-29 11:30 51°18.553 2°53.768 15.4 14 16.2 102450 80
2004-06-29 11:31 51°18.475 2°53.46 15.1 11 16.1 102450 79
2004-06-29 11:32 51°18.394 2°53.139 15.9 13 16.2 102460 80
2004-06-29 11:33 51°18.312 2°52.827 14.7 16 16.2 102450 80
2004-06-29 11:34 51°18.18 2°52.583 13.9 36 16.2 102450 80
2004-06-29 11:35 51°17.983 2°52.461 14 43 15.9 102450 79
2004-06-29 11:36 51°17.779 2°52.397 12.5 51 15.9 102460 80
2004-06-29 11:37 51°17.566 2°52.407 12.3 59 15.9 102470 81
2004-06-29 11:38 51°17.353 2°52.44 11.9 61 15.9 102460 82
2004-06-29 11:39 51°17.139 2°52.507 11.1 66 15.9 102460 82
2004-06-29 11:40 51°16.94 2°52.632 9.7 61 15.8 102470 82
2004-06-29 11:41 51°16.741 2°52.763 10.4 68 15.9 102480 82
2004-06-29 11:42 51°16.533 2°52.901 8.9 71 15.9 102470 81
2004-06-29 11:43 51°16.334 2°53.061 7.6 75 16 102480 83
2004-06-29 11:44 51°16.137 2°53.223 9.1 73 16 102480 83
2004-06-29 11:45 51°15.938 2°53.377 8.5 70 15.9 102480 82
2004-06-29 11:46 51°15.738 2°53.53 8.2 67 16 102470 82
2004-06-29 11:47 51°15.536 2°53.682 8.2 71 16 102470 82
2004-06-29 11:48 51°15.334 2°53.837 7.9 69 16 102470 82
2004-06-29 11:49 51°15.177 2°53.955 8 80 16 102480 82
2004-06-29 11:50 51°15 2°54.131 7.6 82 16 102480 81
2004-06-29 11:51 51°14.826 2°54.348 5.9 68 16.1 102480 81
2004-06-29 11:52 51°14.667 2°54.576 5.8 74 16.1 102480 82
2004-06-29 11:53 51°14.513 2°54.801 6.2 93 16.1 102490 82
2004-06-29 11:54 51°14.396 2°54.991 5.6 108 16.2 102490 81